Saint Petersburg, Florida
Current Conditions -  °F | °C
As of 3:53 AM on Sunday 21 Dec 2014 (Local Time) from KSPG Reporting Station
Few Clouds Few Clouds  
Wind Chill: 65°   Ceiling: Unl
Heat Index: 65°   Visibility: 9mi
Dew Point: 61°   Wind: 5mph
Humidity: 87%   Direction: 100°E
Pressure: 30.04"   Gusts: NA
Location:  27.77°N, 82.63°W
Report Text: KSPG 210853Z AUTO 10004KT 9SM FEW090 18/16 A3004 RMK AO2 SLP172 T01830161 55004
Loading
Personal Weather Stations






























Interactive Weather Map New forecast layout! Learn more

10-Day Weather Forecast

Advertisements
Track Severe Weather on mobile